EDT,Max TemperatureF,Mean TemperatureF,Min TemperatureF,Max Dew PointF,MeanDew PointF,Min DewpointF,Max Humidity, Mean Humidity, Min Humidity, Max Sea Level PressureIn, Mean Sea Level PressureIn, Min Sea Level PressureIn, Max VisibilityMiles, Mean VisibilityMiles, Min VisibilityMiles, Max Wind SpeedMPH, Mean Wind SpeedMPH, Max Gust SpeedMPH,PrecipitationIn, CloudCover, Events, WindDirDegrees
2013-3-1,48,43,37,27,25,22,64,52,39,29.91,29.85,29.80,10,10,10,17,9,22,0.00,7,,302
2013-3-2,40,37,33,24,22,21,69,59,48,29.93,29.89,29.85,10,10,10,15,7,21,0.00,8,,342
2013-3-3,46,36,26,21,19,16,75,53,31,29.96,29.89,29.82,10,10,10,17,8,22,0.00,5,,333
2013-3-4,49,38,27,18,14,12,58,41,23,30.07,30.02,29.96,10,10,10,18,8,31,0.00,0,,302
2013-3-5,50,37,24,36,25,17,92,61,29,30.11,29.99,29.73,10,9,4,17,6,23,0.41,7,Rain,120
2013-3-6,43,38,33,41,35,31,100,91,82,29.98,29.57,29.39,10,4,0,36,21,48,2.10,8,Fog-Rain-Snow-Thunderstorm,348
2013-3-7,51,44,36,31,27,24,75,57,39,30.19,30.11,29.99,10,10,10,30,14,38,0.00,3,,327
2013-3-8,50,43,35,28,26,23,64,53,41,30.27,30.20,30.15,10,10,10,30,16,39,0.00,2,,329
2013-3-9,62,49,36,27,25,20,70,45,20,30.35,30.30,30.26,10,10,10,18,6,22,0.00,0,,350
2013-3-10,64,47,29,41,25,12,83,48,13,30.36,30.30,30.25,10,10,10,13,5,16,0.00,3,,154
2013-3-11,68,53,38,49,43,37,100,74,48,30.27,30.15,29.99,10,6,0,18,8,26,0.00,7,Fog,162
2013-3-12,70,57,43,61,54,33,97,79,60,29.97,29.82,29.72,10,7,1,17,12,25,0.79,7,Rain,181
2013-3-13,54,43,32,34,27,14,89,61,32,30.11,30.00,29.92,10,10,10,28,11,36,T,3,Rain,285
2013-3-14,52,42,31,19,15,12,54,38,21,30.19,30.13,30.06,10,10,10,24,10,31,0.00,1,,302
2013-3-15,60,44,27,34,23,14,56,39,22,30.14,30.01,29.85,10,10,10,18,9,25,0.00,4,,237
2013-3-16,71,57,43,55,46,33,100,72,44,29.89,29.76,29.61,10,8,1,28,7,35,0.43,7,Fog-Rain-Thunderstorm,196
2013-3-17,45,40,35,40,36,34,93,88,83,30.29,30.14,29.91,10,6,2,12,6,24,0.20,7,Rain,49
2013-3-18,40,37,34,38,35,32,100,96,92,30.30,30.16,29.88,8,3,1,14,6,17,0.53,8,Rain,42
2013-3-19,66,51,36,39,30,5,100,58,15,29.99,29.85,29.77,10,7,1,29,10,39,T,5,,271
2013-3-20,57,44,31,20,12,4,44,30,15,30.07,29.95,29.79,10,10,10,21,10,28,0.00,3,,255
2013-3-21,45,37,29,28,20,8,85,55,25,29.96,29.81,29.72,10,8,1,24,14,30,0.01,6,Snow,345
2013-3-22,51,39,27,22,13,9,56,39,22,30.04,29.98,29.93,10,10,10,20,8,25,0.00,1,,270
2013-3-23,56,42,27,27,21,16,75,48,20,30.08,30.00,29.94,10,10,10,15,3,20,0.00,4,,301
2013-3-24,42,38,33,32,30,24,96,74,51,29.99,29.80,29.64,10,5,0,15,7,22,0.58,7,Fog-Rain-Snow,42
2013-3-25,39,36,33,35,33,32,96,91,85,29.73,29.59,29.52,10,5,1,21,8,29,0.19,8,Rain-Snow,306
2013-3-26,51,41,31,32,28,25,82,61,39,30.04,29.89,29.75,10,10,10,20,9,25,0.00,4,,294
2013-3-27,53,44,35,27,24,20,70,50,30,30.17,30.11,30.05,10,10,10,24,11,31,0.00,3,,296
2013-3-28,55,45,35,26,24,23,64,48,32,30.27,30.18,30.15,10,10,10,22,10,28,0.00,4,,307
2013-3-29,60,48,36,30,27,24,70,48,26,30.30,30.25,30.18,10,10,10,17,5,24,0.00,6,,314
2013-3-30,64,49,33,34,29,24,82,53,23,30.25,30.19,30.12,10,10,10,16,5,22,0.00,4,,275
2013-3-31,59,52,44,54,45,31,100,77,53,30.14,29.93,29.79,10,6,1,15,6,20,0.33,8,Fog-Rain,167